sensor_id;sensor_type;location;lat;lon;timestamp;P1;durP1;ratioP1;P2;durP2;ratioP2
26718;SDS011;14326;50.794;6.060;2023-11-19T00:00:58;2.17;;;1.20;;
26718;SDS011;14326;50.794;6.060;2023-11-19T00:03:26;3.65;;;1.08;;
26718;SDS011;14326;50.794;6.060;2023-11-19T00:05:53;3.25;;;1.20;;
26718;SDS011;14326;50.794;6.060;2023-11-19T00:08:20;3.92;;;1.10;;
26718;SDS011;14326;50.794;6.060;2023-11-19T00:10:49;2.00;;;0.90;;
26718;SDS011;14326;50.794;6.060;2023-11-19T00:13:16;1.73;;;0.95;;
26718;SDS011;14326;50.794;6.060;2023-11-19T00:15:43;2.63;;;1.10;;
26718;SDS011;14326;50.794;6.060;2023-11-19T00:18:10;2.60;;;0.93;;
26718;SDS011;14326;50.794;6.060;2023-11-19T00:20:38;3.00;;;1.30;;
26718;SDS011;14326;50.794;6.060;2023-11-19T00:23:05;3.70;;;1.23;;
26718;SDS011;14326;50.794;6.060;2023-11-19T00:25:31;3.83;;;1.45;;
26718;SDS011;14326;50.794;6.060;2023-11-19T00:27:58;4.93;;;1.50;;
26718;SDS011;14326;50.794;6.060;2023-11-19T00:30:24;5.25;;;1.65;;
26718;SDS011;14326;50.794;6.060;2023-11-19T00:32:51;6.32;;;1.92;;
26718;SDS011;14326;50.794;6.060;2023-11-19T00:35:18;6.38;;;2.00;;
26718;SDS011;14326;50.794;6.060;2023-11-19T00:37:46;6.05;;;1.70;;
26718;SDS011;14326;50.794;6.060;2023-11-19T00:40:12;5.93;;;1.98;;
26718;SDS011;14326;50.794;6.060;2023-11-19T00:42:42;7.18;;;2.20;;
26718;SDS011;14326;50.794;6.060;2023-11-19T00:45:09;6.85;;;1.90;;
26718;SDS011;14326;50.794;6.060;2023-11-19T00:47:37;3.22;;;1.70;;
26718;SDS011;14326;50.794;6.060;2023-11-19T00:50:04;6.90;;;2.10;;
26718;SDS011;14326;50.794;6.060;2023-11-19T00:52:34;8.93;;;2.28;;
26718;SDS011;14326;50.794;6.060;2023-11-19T00:55:03;5.35;;;2.10;;
26718;SDS011;14326;50.794;6.060;2023-11-19T00:57:30;7.50;;;2.50;;
26718;SDS011;14326;50.794;6.060;2023-11-19T00:59:58;9.88;;;2.83;;
26718;SDS011;14326;50.794;6.060;2023-11-19T01:02:25;10.63;;;2.40;;
26718;SDS011;14326;50.794;6.060;2023-11-19T01:04:51;10.40;;;2.35;;
26718;SDS011;14326;50.794;6.060;2023-11-19T01:07:18;12.18;;;2.78;;
26718;SDS011;14326;50.794;6.060;2023-11-19T01:09:47;13.02;;;2.83;;
26718;SDS011;14326;50.794;6.060;2023-11-19T01:12:14;6.22;;;2.20;;
26718;SDS011;14326;50.794;6.060;2023-11-19T01:14:41;11.57;;;2.65;;
26718;SDS011;14326;50.794;6.060;2023-11-19T01:17:08;8.38;;;2.13;;
26718;SDS011;14326;50.794;6.060;2023-11-19T01:19:34;7.88;;;2.30;;
26718;SDS011;14326;50.794;6.060;2023-11-19T01:22:01;11.93;;;2.67;;
26718;SDS011;14326;50.794;6.060;2023-11-19T01:24:27;7.50;;;2.03;;
26718;SDS011;14326;50.794;6.060;2023-11-19T01:26:56;7.80;;;1.90;;
26718;SDS011;14326;50.794;6.060;2023-11-19T01:29:26;9.05;;;2.08;;
26718;SDS011;14326;50.794;6.060;2023-11-19T01:31:52;8.18;;;1.83;;
26718;SDS011;14326;50.794;6.060;2023-11-19T01:34:19;9.23;;;2.35;;
26718;SDS011;14326;50.794;6.060;2023-11-19T01:36:46;10.35;;;2.20;;
26718;SDS011;14326;50.794;6.060;2023-11-19T01:39:13;15.27;;;2.63;;
26718;SDS011;14326;50.794;6.060;2023-11-19T01:41:41;11.27;;;2.30;;
26718;SDS011;14326;50.794;6.060;2023-11-19T01:44:08;9.50;;;2.47;;
26718;SDS011;14326;50.794;6.060;2023-11-19T01:46:38;14.10;;;2.88;;
26718;SDS011;14326;50.794;6.060;2023-11-19T01:49:06;13.25;;;2.90;;
26718;SDS011;14326;50.794;6.060;2023-11-19T01:51:34;8.93;;;2.40;;
26718;SDS011;14326;50.794;6.060;2023-11-19T01:54:01;13.63;;;2.50;;
26718;SDS011;14326;50.794;6.060;2023-11-19T01:56:28;17.70;;;2.55;;
26718;SDS011;14326;50.794;6.060;2023-11-19T01:58:55;12.38;;;2.65;;
26718;SDS011;14326;50.794;6.060;2023-11-19T02:01:23;13.18;;;2.10;;
26718;SDS011;14326;50.794;6.060;2023-11-19T02:03:51;13.48;;;2.50;;
26718;SDS011;14326;50.794;6.060;2023-11-19T02:06:18;10.45;;;2.40;;
26718;SDS011;14326;50.794;6.060;2023-11-19T02:08:45;17.33;;;2.53;;
26718;SDS011;14326;50.794;6.060;2023-11-19T02:11:12;17.35;;;2.65;;
26718;SDS011;14326;50.794;6.060;2023-11-19T02:13:38;18.13;;;3.40;;
26718;SDS011;14326;50.794;6.060;2023-11-19T02:16:06;15.68;;;2.83;;
26718;SDS011;14326;50.794;6.060;2023-11-19T02:18:34;15.95;;;3.03;;
26718;SDS011;14326;50.794;6.060;2023-11-19T02:21:02;21.95;;;3.03;;
26718;SDS011;14326;50.794;6.060;2023-11-19T02:23:30;16.42;;;2.55;;
26718;SDS011;14326;50.794;6.060;2023-11-19T02:26:02;26.35;;;3.05;;
26718;SDS011;14326;50.794;6.060;2023-11-19T02:28:35;14.20;;;2.38;;
26718;SDS011;14326;50.794;6.060;2023-11-19T02:31:02;12.98;;;2.58;;
26718;SDS011;14326;50.794;6.060;2023-11-19T02:33:29;15.77;;;2.30;;
26718;SDS011;14326;50.794;6.060;2023-11-19T02:35:56;16.50;;;2.63;;
26718;SDS011;14326;50.794;6.060;2023-11-19T02:38:23;12.48;;;2.72;;
26718;SDS011;14326;50.794;6.060;2023-11-19T02:40:50;17.88;;;2.42;;
26718;SDS011;14326;50.794;6.060;2023-11-19T02:43:17;21.08;;;3.25;;
26718;SDS011;14326;50.794;6.060;2023-11-19T02:45:45;21.30;;;3.10;;
26718;SDS011;14326;50.794;6.060;2023-11-19T02:48:12;18.63;;;3.67;;
26718;SDS011;14326;50.794;6.060;2023-11-19T02:50:40;14.63;;;3.17;;
26718;SDS011;14326;50.794;6.060;2023-11-19T02:53:07;18.02;;;2.78;;
26718;SDS011;14326;50.794;6.060;2023-11-19T02:55:34;16.50;;;3.10;;
26718;SDS011;14326;50.794;6.060;2023-11-19T02:58:03;18.33;;;2.53;;
26718;SDS011;14326;50.794;6.060;2023-11-19T03:00:34;19.33;;;3.40;;
26718;SDS011;14326;50.794;6.060;2023-11-19T03:03:08;18.48;;;2.83;;
26718;SDS011;14326;50.794;6.060;2023-11-19T03:05:45;15.85;;;2.50;;
26718;SDS011;14326;50.794;6.060;2023-11-19T03:08:12;17.00;;;2.75;;
26718;SDS011;14326;50.794;6.060;2023-11-19T03:10:38;14.23;;;2.60;;
26718;SDS011;14326;50.794;6.060;2023-11-19T03:13:05;17.98;;;2.30;;
26718;SDS011;14326;50.794;6.060;2023-11-19T03:15:32;16.02;;;2.88;;
26718;SDS011;14326;50.794;6.060;2023-11-19T03:17:59;14.75;;;3.35;;
26718;SDS011;14326;50.794;6.060;2023-11-19T03:20:27;21.70;;;3.17;;
26718;SDS011;14326;50.794;6.060;2023-11-19T03:22:55;15.90;;;2.90;;
26718;SDS011;14326;50.794;6.060;2023-11-19T03:25:22;19.88;;;2.80;;
26718;SDS011;14326;50.794;6.060;2023-11-19T03:27:51;26.02;;;3.03;;
26718;SDS011;14326;50.794;6.060;2023-11-19T03:30:18;17.30;;;2.80;;
26718;SDS011;14326;50.794;6.060;2023-11-19T03:32:45;13.68;;;2.60;;
26718;SDS011;14326;50.794;6.060;2023-11-19T03:35:12;21.48;;;3.40;;
26718;SDS011;14326;50.794;6.060;2023-11-19T03:37:40;18.73;;;4.60;;
26718;SDS011;14326;50.794;6.060;2023-11-19T03:40:08;18.20;;;3.90;;
26718;SDS011;14326;50.794;6.060;2023-11-19T03:42:36;19.08;;;3.65;;
26718;SDS011;14326;50.794;6.060;2023-11-19T03:45:05;23.15;;;3.70;;
26718;SDS011;14326;50.794;6.060;2023-11-19T03:47:33;23.50;;;3.53;;
26718;SDS011;14326;50.794;6.060;2023-11-19T03:50:00;21.42;;;3.60;;
26718;SDS011;14326;50.794;6.060;2023-11-19T03:52:27;18.58;;;3.72;;
26718;SDS011;14326;50.794;6.060;2023-11-19T03:54:55;15.23;;;2.72;;
26718;SDS011;14326;50.794;6.060;2023-11-19T03:57:22;17.83;;;3.13;;
26718;SDS011;14326;50.794;6.060;2023-11-19T03:59:49;24.58;;;3.42;;
26718;SDS011;14326;50.794;6.060;2023-11-19T04:02:16;20.98;;;3.08;;
26718;SDS011;14326;50.794;6.060;2023-11-19T04:04:43;22.83;;;3.67;;
26718;SDS011;14326;50.794;6.060;2023-11-19T04:07:10;27.70;;;4.25;;
26718;SDS011;14326;50.794;6.060;2023-11-19T04:09:37;21.35;;;3.30;;
26718;SDS011;14326;50.794;6.060;2023-11-19T04:12:05;21.52;;;3.03;;
26718;SDS011;14326;50.794;6.060;2023-11-19T04:14:32;20.90;;;3.35;;
26718;SDS011;14326;50.794;6.060;2023-11-19T04:16:58;22.60;;;3.35;;
26718;SDS011;14326;50.794;6.060;2023-11-19T04:19:25;22.33;;;3.38;;
26718;SDS011;14326;50.794;6.060;2023-11-19T04:21:51;25.30;;;3.85;;
26718;SDS011;14326;50.794;6.060;2023-11-19T04:24:18;22.77;;;3.40;;
26718;SDS011;14326;50.794;6.060;2023-11-19T04:26:45;22.38;;;3.20;;
26718;SDS011;14326;50.794;6.060;2023-11-19T04:29:14;21.27;;;3.40;;
26718;SDS011;14326;50.794;6.060;2023-11-19T04:31:42;15.13;;;2.35;;
26718;SDS011;14326;50.794;6.060;2023-11-19T04:34:09;20.35;;;2.90;;
26718;SDS011;14326;50.794;6.060;2023-11-19T04:36:36;23.45;;;3.10;;
26718;SDS011;14326;50.794;6.060;2023-11-19T04:39:03;24.02;;;3.22;;
26718;SDS011;14326;50.794;6.060;2023-11-19T04:41:34;23.45;;;3.40;;
26718;SDS011;14326;50.794;6.060;2023-11-19T04:44:00;21.65;;;4.00;;
26718;SDS011;14326;50.794;6.060;2023-11-19T04:46:28;22.92;;;3.42;;
26718;SDS011;14326;50.794;6.060;2023-11-19T04:48:55;23.45;;;3.95;;
26718;SDS011;14326;50.794;6.060;2023-11-19T04:51:22;21.58;;;3.17;;
26718;SDS011;14326;50.794;6.060;2023-11-19T04:53:48;23.13;;;3.45;;
26718;SDS011;14326;50.794;6.060;2023-11-19T04:56:15;23.40;;;3.58;;
26718;SDS011;14326;50.794;6.060;2023-11-19T04:58:44;24.10;;;3.22;;
26718;SDS011;14326;50.794;6.060;2023-11-19T05:01:13;21.35;;;3.63;;
26718;SDS011;14326;50.794;6.060;2023-11-19T05:06:09;27.92;;;4.32;;
26718;SDS011;14326;50.794;6.060;2023-11-19T05:08:36;23.17;;;3.67;;
26718;SDS011;14326;50.794;6.060;2023-11-19T05:11:02;24.15;;;4.13;;
26718;SDS011;14326;50.794;6.060;2023-11-19T05:13:31;23.33;;;4.25;;
26718;SDS011;14326;50.794;6.060;2023-11-19T05:15:57;21.50;;;3.60;;
26718;SDS011;14326;50.794;6.060;2023-11-19T05:18:24;21.70;;;3.28;;
26718;SDS011;14326;50.794;6.060;2023-11-19T05:20:52;25.05;;;3.50;;
26718;SDS011;14326;50.794;6.060;2023-11-19T05:23:18;21.92;;;3.35;;
26718;SDS011;14326;50.794;6.060;2023-11-19T05:25:45;26.40;;;3.30;;
26718;SDS011;14326;50.794;6.060;2023-11-19T05:28:12;22.10;;;3.78;;
26718;SDS011;14326;50.794;6.060;2023-11-19T05:30:39;25.77;;;4.05;;
26718;SDS011;14326;50.794;6.060;2023-11-19T05:33:06;24.20;;;3.78;;
26718;SDS011;14326;50.794;6.060;2023-11-19T05:35:34;30.92;;;5.00;;
26718;SDS011;14326;50.794;6.060;2023-11-19T05:38:02;22.52;;;4.43;;
26718;SDS011;14326;50.794;6.060;2023-11-19T05:40:28;32.08;;;4.45;;
26718;SDS011;14326;50.794;6.060;2023-11-19T05:42:55;23.40;;;3.08;;
26718;SDS011;14326;50.794;6.060;2023-11-19T05:45:21;24.75;;;3.70;;
26718;SDS011;14326;50.794;6.060;2023-11-19T05:47:48;23.60;;;3.65;;
26718;SDS011;14326;50.794;6.060;2023-11-19T05:50:16;26.60;;;3.58;;
26718;SDS011;14326;50.794;6.060;2023-11-19T05:52:43;24.00;;;3.50;;
26718;SDS011;14326;50.794;6.060;2023-11-19T05:55:11;24.80;;;3.47;;
26718;SDS011;14326;50.794;6.060;2023-11-19T05:57:39;22.25;;;3.70;;
26718;SDS011;14326;50.794;6.060;2023-11-19T06:00:06;23.27;;;3.30;;
26718;SDS011;14326;50.794;6.060;2023-11-19T06:02:35;26.40;;;2.97;;
26718;SDS011;14326;50.794;6.060;2023-11-19T06:05:03;25.98;;;3.60;;
26718;SDS011;14326;50.794;6.060;2023-11-19T06:07:31;23.67;;;3.10;;
26718;SDS011;14326;50.794;6.060;2023-11-19T06:09:58;23.23;;;3.10;;
26718;SDS011;14326;50.794;6.060;2023-11-19T06:12:26;22.17;;;3.10;;
26718;SDS011;14326;50.794;6.060;2023-11-19T06:14:53;24.48;;;4.00;;
26718;SDS011;14326;50.794;6.060;2023-11-19T06:17:20;22.08;;;3.55;;
26718;SDS011;14326;50.794;6.060;2023-11-19T06:19:46;29.63;;;3.30;;
26718;SDS011;14326;50.794;6.060;2023-11-19T06:22:13;27.17;;;3.47;;
26718;SDS011;14326;50.794;6.060;2023-11-19T06:24:40;28.50;;;3.40;;
26718;SDS011;14326;50.794;6.060;2023-11-19T06:27:06;26.65;;;3.85;;
26718;SDS011;14326;50.794;6.060;2023-11-19T06:29:34;21.73;;;3.38;;
26718;SDS011;14326;50.794;6.060;2023-11-19T06:32:01;30.88;;;4.30;;
26718;SDS011;14326;50.794;6.060;2023-11-19T06:34:28;25.38;;;3.50;;
26718;SDS011;14326;50.794;6.060;2023-11-19T06:36:55;29.88;;;4.35;;
26718;SDS011;14326;50.794;6.060;2023-11-19T06:39:21;31.30;;;4.65;;
26718;SDS011;14326;50.794;6.060;2023-11-19T06:41:48;26.60;;;3.67;;
26718;SDS011;14326;50.794;6.060;2023-11-19T06:44:15;29.35;;;4.18;;
26718;SDS011;14326;50.794;6.060;2023-11-19T06:46:43;26.23;;;4.22;;
26718;SDS011;14326;50.794;6.060;2023-11-19T06:49:09;28.05;;;3.60;;
26718;SDS011;14326;50.794;6.060;2023-11-19T06:51:40;32.28;;;5.40;;
26718;SDS011;14326;50.794;6.060;2023-11-19T06:54:08;29.38;;;4.00;;
26718;SDS011;14326;50.794;6.060;2023-11-19T06:56:34;22.90;;;3.92;;
26718;SDS011;14326;50.794;6.060;2023-11-19T06:59:02;31.48;;;5.35;;
26718;SDS011;14326;50.794;6.060;2023-11-19T07:01:30;26.63;;;4.07;;
26718;SDS011;14326;50.794;6.060;2023-11-19T07:04:02;25.27;;;4.25;;
26718;SDS011;14326;50.794;6.060;2023-11-19T07:06:33;25.98;;;3.97;;
26718;SDS011;14326;50.794;6.060;2023-11-19T07:09:00;29.58;;;4.15;;
26718;SDS011;14326;50.794;6.060;2023-11-19T07:11:34;31.75;;;3.95;;
26718;SDS011;14326;50.794;6.060;2023-11-19T07:14:01;30.15;;;4.40;;
26718;SDS011;14326;50.794;6.060;2023-11-19T07:16:28;29.83;;;4.57;;
26718;SDS011;14326;50.794;6.060;2023-11-19T07:18:54;27.55;;;5.22;;
26718;SDS011;14326;50.794;6.060;2023-11-19T07:21:22;30.17;;;4.10;;
26718;SDS011;14326;50.794;6.060;2023-11-19T07:23:49;30.60;;;5.10;;
26718;SDS011;14326;50.794;6.060;2023-11-19T07:26:16;26.85;;;5.13;;
26718;SDS011;14326;50.794;6.060;2023-11-19T07:28:43;27.13;;;4.25;;
26718;SDS011;14326;50.794;6.060;2023-11-19T07:31:10;23.13;;;4.45;;
26718;SDS011;14326;50.794;6.060;2023-11-19T07:33:39;31.00;;;3.97;;
26718;SDS011;14326;50.794;6.060;2023-11-19T07:36:07;28.05;;;4.15;;
26718;SDS011;14326;50.794;6.060;2023-11-19T07:38:36;27.67;;;3.78;;
26718;SDS011;14326;50.794;6.060;2023-11-19T07:41:03;26.67;;;3.67;;
26718;SDS011;14326;50.794;6.060;2023-11-19T07:43:31;30.38;;;3.65;;
26718;SDS011;14326;50.794;6.060;2023-11-19T07:45:58;28.77;;;4.35;;
26718;SDS011;14326;50.794;6.060;2023-11-19T07:48:25;31.48;;;4.63;;
26718;SDS011;14326;50.794;6.060;2023-11-19T07:50:52;33.67;;;4.80;;
26718;SDS011;14326;50.794;6.060;2023-11-19T07:53:19;29.52;;;3.70;;
26718;SDS011;14326;50.794;6.060;2023-11-19T07:55:47;26.85;;;3.75;;
26718;SDS011;14326;50.794;6.060;2023-11-19T07:58:14;30.50;;;4.00;;
26718;SDS011;14326;50.794;6.060;2023-11-19T08:00:41;32.25;;;3.75;;
26718;SDS011;14326;50.794;6.060;2023-11-19T08:03:07;25.33;;;4.40;;
26718;SDS011;14326;50.794;6.060;2023-11-19T08:05:34;23.52;;;4.53;;
26718;SDS011;14326;50.794;6.060;2023-11-19T08:08:01;27.63;;;4.50;;
26718;SDS011;14326;50.794;6.060;2023-11-19T08:10:27;32.75;;;4.30;;
26718;SDS011;14326;50.794;6.060;2023-11-19T08:12:56;30.48;;;4.43;;
26718;SDS011;14326;50.794;6.060;2023-11-19T08:15:22;32.75;;;4.65;;
26718;SDS011;14326;50.794;6.060;2023-11-19T08:17:49;27.92;;;4.00;;
26718;SDS011;14326;50.794;6.060;2023-11-19T08:20:16;33.53;;;4.22;;
26718;SDS011;14326;50.794;6.060;2023-11-19T08:22:42;24.08;;;4.38;;
26718;SDS011;14326;50.794;6.060;2023-11-19T08:25:09;29.38;;;4.25;;
26718;SDS011;14326;50.794;6.060;2023-11-19T08:27:36;30.27;;;4.75;;
26718;SDS011;14326;50.794;6.060;2023-11-19T08:30:04;22.75;;;4.18;;
26718;SDS011;14326;50.794;6.060;2023-11-19T08:32:32;30.80;;;5.15;;
26718;SDS011;14326;50.794;6.060;2023-11-19T08:34:59;27.90;;;4.10;;
26718;SDS011;14326;50.794;6.060;2023-11-19T08:37:25;37.13;;;4.25;;
26718;SDS011;14326;50.794;6.060;2023-11-19T08:39:52;29.17;;;5.63;;
26718;SDS011;14326;50.794;6.060;2023-11-19T08:42:19;28.75;;;4.30;;
26718;SDS011;14326;50.794;6.060;2023-11-19T08:44:48;36.35;;;5.55;;
26718;SDS011;14326;50.794;6.060;2023-11-19T08:47:20;32.60;;;4.40;;
26718;SDS011;14326;50.794;6.060;2023-11-19T08:49:47;28.27;;;4.13;;
26718;SDS011;14326;50.794;6.060;2023-11-19T08:52:14;28.35;;;4.45;;
26718;SDS011;14326;50.794;6.060;2023-11-19T08:54:42;33.70;;;4.78;;
26718;SDS011;14326;50.794;6.060;2023-11-19T08:57:09;29.83;;;4.07;;
26718;SDS011;14326;50.794;6.060;2023-11-19T08:59:38;26.95;;;4.15;;
26718;SDS011;14326;50.794;6.060;2023-11-19T09:02:05;33.85;;;5.05;;
26718;SDS011;14326;50.794;6.060;2023-11-19T09:04:33;30.58;;;4.82;;
26718;SDS011;14326;50.794;6.060;2023-11-19T09:07:01;29.15;;;3.83;;
26718;SDS011;14326;50.794;6.060;2023-11-19T09:09:28;28.55;;;4.47;;
26718;SDS011;14326;50.794;6.060;2023-11-19T09:11:54;31.27;;;4.57;;
26718;SDS011;14326;50.794;6.060;2023-11-19T09:14:21;27.58;;;4.03;;
26718;SDS011;14326;50.794;6.060;2023-11-19T09:16:50;26.48;;;4.30;;
26718;SDS011;14326;50.794;6.060;2023-11-19T09:19:17;34.80;;;4.63;;
26718;SDS011;14326;50.794;6.060;2023-11-19T09:21:45;27.42;;;4.18;;
26718;SDS011;14326;50.794;6.060;2023-11-19T09:24:14;27.63;;;4.32;;
26718;SDS011;14326;50.794;6.060;2023-11-19T09:26:40;25.52;;;4.65;;
26718;SDS011;14326;50.794;6.060;2023-11-19T09:29:07;36.17;;;5.05;;
26718;SDS011;14326;50.794;6.060;2023-11-19T09:31:34;31.63;;;4.30;;
26718;SDS011;14326;50.794;6.060;2023-11-19T09:34:01;32.22;;;4.30;;
26718;SDS011;14326;50.794;6.060;2023-11-19T09:36:27;28.92;;;3.75;;
26718;SDS011;14326;50.794;6.060;2023-11-19T09:38:55;26.88;;;4.72;;
26718;SDS011;14326;50.794;6.060;2023-11-19T09:41:22;34.75;;;4.32;;
26718;SDS011;14326;50.794;6.060;2023-11-19T09:43:50;35.58;;;4.63;;
26718;SDS011;14326;50.794;6.060;2023-11-19T09:46:17;30.30;;;4.80;;
26718;SDS011;14326;50.794;6.060;2023-11-19T09:48:45;33.75;;;4.28;;
26718;SDS011;14326;50.794;6.060;2023-11-19T09:51:13;30.65;;;5.45;;
26718;SDS011;14326;50.794;6.060;2023-11-19T09:53:40;27.13;;;4.20;;
26718;SDS011;14326;50.794;6.060;2023-11-19T09:56:08;28.92;;;4.05;;
26718;SDS011;14326;50.794;6.060;2023-11-19T09:58:36;25.20;;;3.83;;
26718;SDS011;14326;50.794;6.060;2023-11-19T10:01:03;31.90;;;4.57;;
26718;SDS011;14326;50.794;6.060;2023-11-19T10:03:32;26.95;;;3.90;;
26718;SDS011;14326;50.794;6.060;2023-11-19T10:06:00;30.15;;;4.25;;
26718;SDS011;14326;50.794;6.060;2023-11-19T10:08:27;30.80;;;4.43;;
26718;SDS011;14326;50.794;6.060;2023-11-19T10:10:53;29.90;;;4.53;;
26718;SDS011;14326;50.794;6.060;2023-11-19T10:13:22;29.05;;;4.18;;
26718;SDS011;14326;50.794;6.060;2023-11-19T10:15:52;27.48;;;3.92;;
26718;SDS011;14326;50.794;6.060;2023-11-19T10:18:22;30.10;;;4.65;;
26718;SDS011;14326;50.794;6.060;2023-11-19T10:20:50;28.23;;;5.30;;
26718;SDS011;14326;50.794;6.060;2023-11-19T10:23:16;27.60;;;4.25;;
26718;SDS011;14326;50.794;6.060;2023-11-19T10:25:43;27.52;;;4.18;;
26718;SDS011;14326;50.794;6.060;2023-11-19T10:28:10;20.17;;;3.53;;
26718;SDS011;14326;50.794;6.060;2023-11-19T10:30:37;28.42;;;5.43;;
26718;SDS011;14326;50.794;6.060;2023-11-19T10:33:05;24.85;;;3.92;;
26718;SDS011;14326;50.794;6.060;2023-11-19T10:35:32;25.60;;;4.00;;
26718;SDS011;14326;50.794;6.060;2023-11-19T10:38:00;30.38;;;3.83;;
26718;SDS011;14326;50.794;6.060;2023-11-19T10:40:39;32.28;;;5.10;;
26718;SDS011;14326;50.794;6.060;2023-11-19T10:43:06;25.80;;;4.57;;
26718;SDS011;14326;50.794;6.060;2023-11-19T10:45:33;32.60;;;4.25;;
26718;SDS011;14326;50.794;6.060;2023-11-19T10:48:02;23.63;;;3.47;;
26718;SDS011;14326;50.794;6.060;2023-11-19T10:50:31;30.23;;;4.72;;
26718;SDS011;14326;50.794;6.060;2023-11-19T10:52:59;24.52;;;3.90;;
26718;SDS011;14326;50.794;6.060;2023-11-19T10:55:27;21.85;;;2.67;;
26718;SDS011;14326;50.794;6.060;2023-11-19T10:57:56;23.25;;;3.03;;
26718;SDS011;14326;50.794;6.060;2023-11-19T11:00:25;28.30;;;4.07;;
26718;SDS011;14326;50.794;6.060;2023-11-19T11:02:55;24.48;;;4.25;;
26718;SDS011;14326;50.794;6.060;2023-11-19T11:05:27;23.23;;;3.60;;
26718;SDS011;14326;50.794;6.060;2023-11-19T11:07:58;26.25;;;3.58;;
26718;SDS011;14326;50.794;6.060;2023-11-19T11:10:26;27.20;;;4.00;;
26718;SDS011;14326;50.794;6.060;2023-11-19T11:12:55;26.00;;;3.80;;
26718;SDS011;14326;50.794;6.060;2023-11-19T11:15:26;26.42;;;4.25;;
26718;SDS011;14326;50.794;6.060;2023-11-19T11:17:54;26.55;;;4.43;;
26718;SDS011;14326;50.794;6.060;2023-11-19T11:20:25;24.23;;;4.45;;
26718;SDS011;14326;50.794;6.060;2023-11-19T11:22:57;22.65;;;3.33;;
26718;SDS011;14326;50.794;6.060;2023-11-19T11:25:44;26.85;;;4.43;;
26718;SDS011;14326;50.794;6.060;2023-11-19T11:31:08;25.83;;;3.65;;
26718;SDS011;14326;50.794;6.060;2023-11-19T11:33:53;27.58;;;3.97;;
26718;SDS011;14326;50.794;6.060;2023-11-19T11:39:16;24.92;;;3.80;;
26718;SDS011;14326;50.794;6.060;2023-11-19T11:41:44;21.92;;;3.30;;
26718;SDS011;14326;50.794;6.060;2023-11-19T11:44:10;29.77;;;4.47;;
26718;SDS011;14326;50.794;6.060;2023-11-19T11:46:53;26.15;;;3.75;;
26718;SDS011;14326;50.794;6.060;2023-11-19T11:49:26;27.00;;;4.13;;
26718;SDS011;14326;50.794;6.060;2023-11-19T11:52:01;26.60;;;3.75;;
26718;SDS011;14326;50.794;6.060;2023-11-19T11:54:30;19.55;;;3.38;;
26718;SDS011;14326;50.794;6.060;2023-11-19T11:57:01;24.80;;;3.90;;
26718;SDS011;14326;50.794;6.060;2023-11-19T11:59:31;27.02;;;4.10;;
26718;SDS011;14326;50.794;6.060;2023-11-19T12:02:03;20.88;;;3.15;;
26718;SDS011;14326;50.794;6.060;2023-11-19T12:04:30;25.10;;;4.38;;
26718;SDS011;14326;50.794;6.060;2023-11-19T12:07:03;27.77;;;3.75;;
26718;SDS011;14326;50.794;6.060;2023-11-19T12:09:32;29.98;;;3.70;;
26718;SDS011;14326;50.794;6.060;2023-11-19T12:12:12;26.13;;;4.00;;
26718;SDS011;14326;50.794;6.060;2023-11-19T12:14:59;22.80;;;3.40;;
26718;SDS011;14326;50.794;6.060;2023-11-19T12:17:44;24.55;;;4.50;;
26718;SDS011;14326;50.794;6.060;2023-11-19T12:20:17;25.45;;;4.07;;
26718;SDS011;14326;50.794;6.060;2023-11-19T12:22:45;27.20;;;3.75;;
26718;SDS011;14326;50.794;6.060;2023-11-19T12:25:15;22.77;;;3.87;;
26718;SDS011;14326;50.794;6.060;2023-11-19T12:30:11;23.70;;;3.75;;
26718;SDS011;14326;50.794;6.060;2023-11-19T12:32:38;28.95;;;4.00;;
26718;SDS011;14326;50.794;6.060;2023-11-19T12:35:06;26.85;;;3.65;;
26718;SDS011;14326;50.794;6.060;2023-11-19T12:37:38;36.85;;;5.38;;
26718;SDS011;14326;50.794;6.060;2023-11-19T12:40:10;22.13;;;3.60;;
26718;SDS011;14326;50.794;6.060;2023-11-19T12:42:42;23.73;;;3.80;;
26718;SDS011;14326;50.794;6.060;2023-11-19T12:45:09;29.30;;;4.03;;
26718;SDS011;14326;50.794;6.060;2023-11-19T12:47:37;27.75;;;5.03;;
26718;SDS011;14326;50.794;6.060;2023-11-19T12:50:04;31.55;;;4.13;;
26718;SDS011;14326;50.794;6.060;2023-11-19T12:52:31;32.22;;;4.05;;
26718;SDS011;14326;50.794;6.060;2023-11-19T12:54:58;27.77;;;4.55;;
26718;SDS011;14326;50.794;6.060;2023-11-19T12:57:35;25.40;;;3.90;;
26718;SDS011;14326;50.794;6.060;2023-11-19T13:00:05;26.20;;;3.75;;
26718;SDS011;14326;50.794;6.060;2023-11-19T13:02:44;22.00;;;4.22;;
26718;SDS011;14326;50.794;6.060;2023-11-19T13:05:22;19.67;;;3.83;;
26718;SDS011;14326;50.794;6.060;2023-11-19T13:07:51;28.83;;;3.75;;
26718;SDS011;14326;50.794;6.060;2023-11-19T13:10:18;24.33;;;3.70;;
26718;SDS011;14326;50.794;6.060;2023-11-19T13:12:53;28.65;;;3.90;;
26718;SDS011;14326;50.794;6.060;2023-11-19T13:15:27;23.40;;;4.07;;
26718;SDS011;14326;50.794;6.060;2023-11-19T13:17:54;26.63;;;3.83;;
26718;SDS011;14326;50.794;6.060;2023-11-19T13:20:21;22.92;;;3.75;;
26718;SDS011;14326;50.794;6.060;2023-11-19T13:22:54;28.70;;;3.70;;
26718;SDS011;14326;50.794;6.060;2023-11-19T13:25:21;23.05;;;4.00;;
26718;SDS011;14326;50.794;6.060;2023-11-19T13:27:48;30.17;;;4.68;;
26718;SDS011;14326;50.794;6.060;2023-11-19T13:30:15;27.15;;;3.88;;
26718;SDS011;14326;50.794;6.060;2023-11-19T13:32:44;21.92;;;3.70;;
26718;SDS011;14326;50.794;6.060;2023-11-19T13:35:11;31.83;;;4.30;;
26718;SDS011;14326;50.794;6.060;2023-11-19T13:37:38;24.88;;;3.63;;
26718;SDS011;14326;50.794;6.060;2023-11-19T13:40:05;22.85;;;3.90;;
26718;SDS011;14326;50.794;6.060;2023-11-19T13:42:34;29.45;;;3.63;;
26718;SDS011;14326;50.794;6.060;2023-11-19T13:45:02;21.80;;;2.88;;
26718;SDS011;14326;50.794;6.060;2023-11-19T13:47:29;25.75;;;3.47;;
26718;SDS011;14326;50.794;6.060;2023-11-19T13:49:57;20.65;;;3.35;;
26718;SDS011;14326;50.794;6.060;2023-11-19T13:52:23;18.65;;;3.28;;
26718;SDS011;14326;50.794;6.060;2023-11-19T13:54:50;21.67;;;3.30;;
26718;SDS011;14326;50.794;6.060;2023-11-19T13:57:16;25.17;;;3.75;;
26718;SDS011;14326;50.794;6.060;2023-11-19T13:59:43;23.50;;;3.45;;
26718;SDS011;14326;50.794;6.060;2023-11-19T14:02:11;27.13;;;3.92;;
26718;SDS011;14326;50.794;6.060;2023-11-19T14:04:38;25.45;;;3.97;;
26718;SDS011;14326;50.794;6.060;2023-11-19T14:07:06;25.75;;;4.20;;
26718;SDS011;14326;50.794;6.060;2023-11-19T14:09:33;20.88;;;3.42;;
26718;SDS011;14326;50.794;6.060;2023-11-19T14:11:59;21.63;;;4.30;;
26718;SDS011;14326;50.794;6.060;2023-11-19T14:14:26;28.63;;;3.83;;
26718;SDS011;14326;50.794;6.060;2023-11-19T14:16:52;24.52;;;3.42;;
26718;SDS011;14326;50.794;6.060;2023-11-19T14:19:19;31.55;;;3.78;;
26718;SDS011;14326;50.794;6.060;2023-11-19T14:21:46;28.55;;;4.18;;
26718;SDS011;14326;50.794;6.060;2023-11-19T14:24:14;26.75;;;3.83;;
26718;SDS011;14326;50.794;6.060;2023-11-19T14:26:41;23.13;;;3.55;;
26718;SDS011;14326;50.794;6.060;2023-11-19T14:29:07;29.15;;;3.60;;
26718;SDS011;14326;50.794;6.060;2023-11-19T14:31:34;30.67;;;4.28;;
26718;SDS011;14326;50.794;6.060;2023-11-19T14:34:00;28.58;;;4.43;;
26718;SDS011;14326;50.794;6.060;2023-11-19T14:36:27;20.90;;;3.33;;
26718;SDS011;14326;50.794;6.060;2023-11-19T14:38:54;25.58;;;3.50;;
26718;SDS011;14326;50.794;6.060;2023-11-19T14:41:22;28.33;;;4.40;;
26718;SDS011;14326;50.794;6.060;2023-11-19T14:43:49;27.55;;;3.97;;
26718;SDS011;14326;50.794;6.060;2023-11-19T14:46:15;28.70;;;3.33;;
26718;SDS011;14326;50.794;6.060;2023-11-19T14:48:42;23.83;;;3.55;;
26718;SDS011;14326;50.794;6.060;2023-11-19T14:51:09;22.10;;;3.70;;